Terminal Aerodrome Forecast
Issued by NWS

Home | Current Version | Previous Version | Text Only | Print | Product List | Glossary On
Versions: 1 2 3 4 5 6 7 8 9 10 11 12 13 14 15 16 17
000
FTAK31 PANC 221737
TAFADL
TAF
PADL 221737Z 2218/2318 35004KT P6SM SKC
     FM222200 36012KT P6SM SKC
     FM230300 36015G22KT P6SM SKC WS020/07030KT
     FM230600 36020G30KT P6SM SKC WS020/07030KT
     FM231300 36020G32KT P6SM VCSH SCT040 BKN080 OVC120
      WS020/10030KT
     FM231600 36020G32KT 4SM -SN BKN025 OVC040 WS020/08040KT=

USA.gov is the U.S. government's official web portal to all federal, state and local government web resources and services.